Time;durP1;ratioP1;P1;durP2;ratioP2;P2;SDS_P1;SDS_P2;PMS_P1;PMS_P2;Temp;Humidity;BMP_temperature;BMP_pressure;BME280_temperature;BME280_humidity;BME280_pressure;Samples;Min_cycle;Max_cycle;Signal;HPM_P1;HPM_P2
2023/08/08 00:02:09;;;;;;;5.80;2.40;;;;;;;11.62;100.00;97514.34;5030406;28;20722;-71
2023/08/08 00:04:35;;;;;;;4.78;2.47;;;;;;;11.63;100.00;97523.91;5030439;28;20403;-71
2023/08/08 00:07:02;;;;;;;3.60;2.10;;;;;;;11.61;100.00;97518.06;5029080;28;20501;-72
2023/08/08 00:09:28;;;;;;;3.43;2.30;;;;;;;11.62;100.00;97517.81;5030747;28;20551;-72
2023/08/08 00:11:54;;;;;;;2.60;2.15;;;;;;;11.62;100.00;97517.81;5045844;28;20814;-72
2023/08/08 00:14:20;;;;;;;3.17;2.30;;;;;;;11.64;100.00;97522.84;5030291;28;20477;-72
2023/08/08 00:16:46;;;;;;;4.80;2.47;;;;;;;11.68;100.00;97520.47;5030105;28;20904;-72
2023/08/08 00:19:14;;;;;;;2.20;2.00;;;;;;;11.70;100.00;97521.84;5030006;28;20485;-72
2023/08/08 00:21:40;;;;;;;4.10;2.53;;;;;;;11.74;100.00;97530.91;5030150;28;20457;-72
2023/08/08 00:24:06;;;;;;;5.25;2.50;;;;;;;11.77;100.00;97526.94;5030277;28;20403;-72
2023/08/08 00:26:33;;;;;;;4.13;2.30;;;;;;;11.81;100.00;97528.03;5030223;28;20880;-72
2023/08/08 00:28:59;;;;;;;3.13;2.50;;;;;;;11.86;100.00;97528.06;5029961;28;20419;-72
2023/08/08 00:31:26;;;;;;;3.15;2.40;;;;;;;11.90;100.00;97521.19;5030066;28;20411;-72
2023/08/08 00:33:52;;;;;;;3.50;2.10;;;;;;;11.92;100.00;97519.91;5030191;28;20482;-72
2023/08/08 00:36:19;;;;;;;2.58;2.20;;;;;;;11.97;100.00;97527.06;5030126;28;20928;-72
2023/08/08 00:38:45;;;;;;;2.83;2.30;;;;;;;12.00;100.00;97523.91;5029993;28;20714;-72
2023/08/08 00:41:12;;;;;;;2.67;2.20;;;;;;;12.02;100.00;97519.97;5029905;28;20430;-72
2023/08/08 00:43:38;;;;;;;2.47;2.05;;;;;;;12.07;100.00;97510.41;5028778;28;20410;-72
2023/08/08 00:46:04;;;;;;;2.60;2.17;;;;;;;12.10;100.00;97515.22;5030125;28;20945;-72
2023/08/08 00:48:31;;;;;;;2.75;1.85;;;;;;;12.16;100.00;97511.53;5029860;28;20411;-72
2023/08/08 00:50:59;;;;;;;2.60;2.20;;;;;;;12.18;100.00;97502.25;5030017;28;20402;-72
2023/08/08 00:53:28;;;;;;;3.37;2.07;;;;;;;12.19;100.00;97514.47;5029959;28;20407;-72
2023/08/08 00:55:54;;;;;;;2.45;2.05;;;;;;;12.21;100.00;97500.94;5029790;28;20469;-72
2023/08/08 00:58:20;;;;;;;2.33;1.92;;;;;;;12.22;100.00;97508.66;5029789;28;20409;-72
2023/08/08 01:00:47;;;;;;;4.40;2.10;;;;;;;12.26;100.00;97500.97;5029780;28;20411;-72
2023/08/08 01:03:13;;;;;;;3.50;2.10;;;;;;;12.25;100.00;97496.72;5032501;28;20801;-72
2023/08/08 01:05:47;;;;;;;2.33;1.98;;;;;;;12.26;100.00;97496.44;5033655;28;20465;-72
2023/08/08 01:08:22;;;;;;;2.13;1.80;;;;;;;12.28;100.00;97501.50;5033599;28;20399;-72
2023/08/08 01:10:50;;;;;;;4.38;2.25;;;;;;;12.26;100.00;97495.66;5045267;28;20439;-72
2023/08/08 01:13:19;;;;;;;2.65;2.20;;;;;;;12.28;100.00;97494.34;5053562;28;20692;-72
2023/08/08 01:15:48;;;;;;;4.32;1.90;;;;;;;12.27;100.00;97494.59;5053355;28;20425;-72
2023/08/08 01:18:15;;;;;;;3.38;2.22;;;;;;;12.25;100.00;97492.22;5053217;28;20411;-72
2023/08/08 01:20:45;;;;;;;2.35;1.80;;;;;;;12.24;100.00;97500.44;5053207;28;20409;-71
2023/08/08 01:23:16;;;;;;;3.97;2.25;;;;;;;12.23;100.00;97496.97;5053302;28;20401;-72
2023/08/08 01:25:45;;;;;;;2.30;1.70;;;;;;;12.26;100.00;97493.00;5053181;28;20428;-72
2023/08/08 01:28:12;;;;;;;3.03;2.30;;;;;;;12.23;100.00;97493.53;5053059;28;20405;-71
2023/08/08 01:30:39;;;;;;;3.65;1.90;;;;;;;12.24;100.00;97489.81;5053094;28;20405;-71
2023/08/08 01:33:07;;;;;;;7.07;2.45;;;;;;;12.27;100.00;97495.38;5053082;28;20471;-71
2023/08/08 01:35:41;;;;;;;2.30;1.90;;;;;;;12.30;100.00;97483.47;5052910;28;20409;-71
2023/08/08 01:38:12;;;;;;;3.57;2.17;;;;;;;12.28;100.00;97481.06;5052948;28;20468;-71
2023/08/08 01:40:42;;;;;;;3.92;2.20;;;;;;;12.30;100.00;97478.97;5052845;28;20400;-71
2023/08/08 01:43:10;;;;;;;6.55;2.83;;;;;;;12.31;100.00;97475.25;5052952;28;20420;-71
2023/08/08 01:45:37;;;;;;;2.33;1.80;;;;;;;12.32;100.00;97484.81;5052905;28;20405;-71
2023/08/08 01:48:07;;;;;;;5.05;2.20;;;;;;;12.34;100.00;97474.72;5052619;28;20906;-71
2023/08/08 01:50:33;;;;;;;2.40;1.75;;;;;;;12.33;100.00;97473.13;5052717;28;20410;-71
2023/08/08 01:53:00;;;;;;;2.83;2.00;;;;;;;12.35;100.00;97478.16;5052574;28;20875;-71
2023/08/08 01:55:26;;;;;;;2.80;1.60;;;;;;;12.34;100.00;97472.06;5052513;28;20802;-71
2023/08/08 01:57:52;;;;;;;1.98;1.77;;;;;;;12.35;100.00;97478.97;5052675;28;20468;-71
2023/08/08 02:00:21;;;;;;;2.55;1.70;;;;;;;12.34;100.00;97474.72;5052646;28;20397;-71
2023/08/08 02:02:47;;;;;;;1.52;1.42;;;;;;;12.34;100.00;97476.56;5052514;28;20458;-71
2023/08/08 02:05:13;;;;;;;2.80;1.90;;;;;;;12.32;100.00;97484.81;5052592;28;20441;-71
2023/08/08 02:07:39;;;;;;;2.67;1.73;;;;;;;12.33;100.00;97478.44;5052344;28;20404;-71
2023/08/08 02:10:06;;;;;;;2.70;1.60;;;;;;;12.28;100.00;97478.41;5052564;28;20405;-71
2023/08/08 02:12:33;;;;;;;3.70;1.70;;;;;;;12.28;100.00;97474.97;5052215;28;20398;-71
2023/08/08 02:14:59;;;;;;;2.80;2.10;;;;;;;12.24;100.00;97473.91;5052384;28;20404;-71
2023/08/08 02:17:27;;;;;;;2.40;1.85;;;;;;;12.19;100.00;97466.69;5052216;28;20409;-71
2023/08/08 02:19:53;;;;;;;2.10;1.80;;;;;;;12.18;100.00;97464.31;5052325;28;20916;-71
2023/08/08 02:22:19;;;;;;;2.23;1.93;;;;;;;12.15;100.00;97462.97;5052258;28;20528;-71
2023/08/08 02:24:46;;;;;;;3.97;1.80;;;;;;;12.10;100.00;97462.16;5052165;28;20414;-71
2023/08/08 02:27:12;;;;;;;3.85;1.77;;;;;;;12.07;100.00;97460.81;5052109;28;20396;-71
2023/08/08 02:29:38;;;;;;;2.75;2.08;;;;;;;12.04;100.00;97466.63;5052085;28;20402;-71
2023/08/08 02:32:05;;;;;;;2.95;2.17;;;;;;;12.00;100.00;97461.06;5051966;28;20412;-71
2023/08/08 02:34:33;;;;;;;2.35;1.95;;;;;;;11.98;100.00;97463.16;5051837;28;20492;-71
2023/08/08 02:36:59;;;;;;;1.60;1.50;;;;;;;11.95;100.00;97461.00;5050575;28;20417;-71
2023/08/08 02:39:25;;;;;;;2.28;1.80;;;;;;;11.92;100.00;97472.16;5051781;28;20405;-71
2023/08/08 02:41:51;;;;;;;3.63;1.65;;;;;;;11.87;100.00;97461.53;5051881;28;20467;-71
2023/08/08 02:44:19;;;;;;;2.03;1.63;;;;;;;11.84;100.00;97459.38;5052010;28;20782;-71
2023/08/08 02:46:45;;;;;;;3.67;1.80;;;;;;;11.79;100.00;97462.00;5032263;28;20407;-71
2023/08/08 02:49:11;;;;;;;2.10;1.80;;;;;;;11.76;100.00;97467.00;5031742;28;20446;-71
2023/08/08 02:51:39;;;;;;;2.08;1.73;;;;;;;11.73;100.00;97465.63;5031676;28;20434;-71
2023/08/08 02:54:05;;;;;;;2.00;1.67;;;;;;;11.72;100.00;97463.25;5031817;28;20789;-71
2023/08/08 02:56:31;;;;;;;3.40;1.90;;;;;;;11.70;100.00;97460.03;5031484;28;21042;-71
2023/08/08 02:58:58;;;;;;;2.28;1.90;;;;;;;11.67;100.00;97455.25;5031651;28;20407;-71
2023/08/08 03:01:24;;;;;;;2.33;1.80;;;;;;;11.64;100.00;97459.22;5031544;28;20400;-71
2023/08/08 03:03:50;;;;;;;3.40;1.90;;;;;;;11.61;100.00;97455.22;5030283;28;20438;-71
2023/08/08 03:06:16;;;;;;;4.80;2.10;;;;;;;11.59;100.00;97464.47;5031558;28;20815;-71
2023/08/08 03:08:44;;;;;;;2.73;2.03;;;;;;;11.55;100.00;97464.19;5031162;28;20407;-71
2023/08/08 03:11:11;;;;;;;3.92;2.05;;;;;;;11.51;100.00;97464.94;5031258;28;20399;-71
2023/08/08 03:13:37;;;;;;;4.85;2.20;;;;;;;11.48;100.00;97471.56;5031457;28;20439;-71
2023/08/08 03:16:04;;;;;;;2.30;2.00;;;;;;;11.46;100.00;97457.78;5031228;28;20399;-71
2023/08/08 03:18:30;;;;;;;3.60;2.17;;;;;;;11.43;100.00;97455.63;5031118;28;20773;-72
2023/08/08 03:20:56;;;;;;;3.77;2.40;;;;;;;11.42;100.00;97459.34;5031161;28;20512;-71
2023/08/08 03:23:23;;;;;;;4.95;2.38;;;;;;;11.39;100.00;97459.03;5031141;28;20403;-71
2023/08/08 03:25:51;;;;;;;2.75;2.10;;;;;;;11.37;100.00;97461.13;5030544;28;20472;-71
2023/08/08 03:28:17;;;;;;;2.42;1.98;;;;;;;11.33;100.00;97460.88;5030876;28;20403;-71
2023/08/08 03:30:43;;;;;;;3.20;2.13;;;;;;;11.32;100.00;97464.56;5030852;28;20415;-71
2023/08/08 03:33:09;;;;;;;3.63;2.03;;;;;;;11.33;100.00;97468.00;5030942;28;20409;-71
2023/08/08 03:35:35;;;;;;;2.60;1.80;;;;;;;11.35;100.00;97471.97;5030773;28;20484;-71
2023/08/08 03:38:02;;;;;;;2.22;1.95;;;;;;;11.38;100.00;97465.38;5030682;28;20780;-71
2023/08/08 03:40:28;;;;;;;3.15;2.25;;;;;;;11.40;100.00;97456.13;5030870;28;20407;-71
2023/08/08 03:42:56;;;;;;;3.13;1.95;;;;;;;11.46;100.00;97464.91;5030704;28;20447;-71
2023/08/08 03:45:22;;;;;;;3.25;2.50;;;;;;;11.50;100.00;97461.50;5030919;28;20987;-71
2023/08/08 03:47:48;;;;;;;4.22;2.35;;;;;;;11.52;100.00;97454.09;5030610;28;20461;-71
2023/08/08 03:50:14;;;;;;;3.45;1.95;;;;;;;11.57;100.00;97458.66;5030726;28;20495;-71
2023/08/08 03:52:41;;;;;;;2.25;1.85;;;;;;;11.57;100.00;97464.75;5030456;28;20465;-71
2023/08/08 03:55:07;;;;;;;2.78;2.08;;;;;;;11.60;100.00;97458.91;5030544;28;20430;-71
2023/08/08 03:57:33;;;;;;;2.97;2.00;;;;;;;11.63;100.00;97462.94;5030235;28;20505;-71
2023/08/08 04:00:01;;;;;;;4.43;2.35;;;;;;;11.63;100.00;97460.28;5029296;28;20419;-71
2023/08/08 04:02:28;;;;;;;2.13;1.92;;;;;;;11.64;100.00;97461.88;5030375;28;20951;-71
2023/08/08 04:04:54;;;;;;;2.90;2.22;;;;;;;11.64;100.00;97457.38;5030522;28;20453;-71
2023/08/08 04:07:20;;;;;;;2.80;2.15;;;;;;;11.65;100.00;97458.19;5030404;28;20804;-71
2023/08/08 04:09:47;;;;;;;2.78;1.77;;;;;;;11.67;100.00;97455.25;5030333;28;20895;-71
2023/08/08 04:12:13;;;;;;;2.17;1.83;;;;;;;11.69;100.00;97466.41;5030480;28;20399;-71
2023/08/08 04:14:39;;;;;;;2.15;1.95;;;;;;;11.70;100.00;97465.34;5030352;28;20409;-71
2023/08/08 04:17:07;;;;;;;4.07;2.38;;;;;;;11.71;100.00;97457.16;5030250;28;20423;-71
2023/08/08 04:19:33;;;;;;;2.35;1.92;;;;;;;11.73;100.00;97460.31;5030073;28;20402;-71
2023/08/08 04:21:59;;;;;;;3.20;1.90;;;;;;;11.75;100.00;97463.56;5030294;28;20403;-71
2023/08/08 04:24:26;;;;;;;3.30;1.90;;;;;;;11.78;100.00;97452.44;5030332;28;20457;-71
2023/08/08 04:26:52;;;;;;;2.97;2.03;;;;;;;11.79;100.00;97451.38;5030465;28;20792;-71
2023/08/08 04:29:18;;;;;;;5.68;2.55;;;;;;;11.79;100.00;97448.75;5037688;28;20501;-71
2023/08/08 04:31:44;;;;;;;4.00;2.10;;;;;;;11.82;100.00;97452.72;5039002;28;20486;-71
2023/08/08 04:34:12;;;;;;;3.33;2.05;;;;;;;11.85;100.00;97449.56;5030199;28;20828;-71
2023/08/08 04:36:38;;;;;;;3.78;1.90;;;;;;;11.86;100.00;97453.81;5030047;28;20418;-71
2023/08/08 04:39:04;;;;;;;3.35;2.00;;;;;;;11.86;100.00;97456.47;5034182;28;20884;-71
2023/08/08 04:41:30;;;;;;;4.45;2.20;;;;;;;11.91;100.00;97445.88;5034145;28;20465;-71
2023/08/08 04:43:56;;;;;;;4.60;2.00;;;;;;;11.91;100.00;97456.47;5034217;28;20880;-71
2023/08/08 04:46:23;;;;;;;2.28;1.80;;;;;;;11.92;100.00;97463.38;5034194;28;20422;-71
2023/08/08 04:48:49;;;;;;;5.07;2.40;;;;;;;11.86;100.00;97467.88;5033930;28;20772;-71
2023/08/08 04:51:16;;;;;;;3.63;1.92;;;;;;;11.90;100.00;97468.94;5033837;28;20407;-71
2023/08/08 04:53:43;;;;;;;3.40;1.98;;;;;;;11.90;100.00;97463.63;5034008;28;20766;-71
2023/08/08 04:56:09;;;;;;;2.75;1.90;;;;;;;11.94;100.00;97463.94;5033765;28;20918;-71
2023/08/08 04:58:35;;;;;;;3.47;2.25;;;;;;;11.93;100.00;97465.78;5033657;28;20414;-71
2023/08/08 05:01:01;;;;;;;4.72;2.10;;;;;;;11.92;100.00;97469.50;5033803;28;20407;-71
2023/08/08 05:03:27;;;;;;;3.40;2.00;;;;;;;11.94;100.00;97464.75;5034081;28;20489;-71
2023/08/08 05:05:54;;;;;;;3.67;2.00;;;;;;;11.95;100.00;97465.53;5033538;28;20406;-71
2023/08/08 05:08:21;;;;;;;2.53;2.00;;;;;;;11.97;100.00;97471.38;5033695;28;20934;-71
2023/08/08 05:10:47;;;;;;;3.58;1.98;;;;;;;11.99;100.00;97464.75;5036919;28;20822;-71
2023/08/08 05:13:14;;;;;;;3.55;1.92;;;;;;;11.97;100.00;97455.44;5046652;28;20407;-71
2023/08/08 05:15:40;;;;;;;2.05;1.80;;;;;;;12.00;100.00;97458.41;5033466;28;20403;-71
2023/08/08 05:18:06;;;;;;;3.60;1.80;;;;;;;12.05;100.00;97449.66;5033405;28;20422;-71
2023/08/08 05:20:32;;;;;;;3.47;1.88;;;;;;;12.20;100.00;97455.03;5033348;28;20411;-71
2023/08/08 05:22:58;;;;;;;6.03;2.20;;;;;;;12.33;100.00;97451.09;5033403;28;20767;-71
2023/08/08 05:25:26;;;;;;;2.85;1.85;;;;;;;12.34;100.00;97452.69;5032112;28;20407;-71
2023/08/08 05:27:53;;;;;;;6.60;2.50;;;;;;;12.40;100.00;97449.78;5033294;28;20777;-71
2023/08/08 05:30:19;;;;;;;3.55;1.90;;;;;;;12.50;100.00;97446.38;5033295;28;20415;-71
2023/08/08 05:32:45;;;;;;;4.75;2.15;;;;;;;12.55;100.00;97450.91;5033140;28;20410;-71
2023/08/08 05:35:11;;;;;;;5.05;1.85;;;;;;;12.58;100.00;97451.16;5033220;28;20456;-71
2023/08/08 05:37:38;;;;;;;3.77;2.00;;;;;;;12.63;100.00;97447.75;5032855;28;20425;-71
2023/08/08 05:40:06;;;;;;;4.53;2.20;;;;;;;12.68;100.00;97456.50;5033185;28;20407;-71
2023/08/08 05:42:33;;;;;;;3.20;1.83;;;;;;;12.72;100.00;97454.91;5033005;28;20406;-71
2023/08/08 05:45:00;;;;;;;2.25;1.70;;;;;;;12.82;100.00;97456.00;5033127;28;20494;-71
2023/08/08 05:47:26;;;;;;;2.83;1.65;;;;;;;12.88;100.00;97465.56;5032490;28;20414;-71
2023/08/08 05:49:52;;;;;;;2.80;1.70;;;;;;;12.91;100.00;97471.16;5032893;28;20423;-71
2023/08/08 05:52:18;;;;;;;2.13;1.70;;;;;;;12.98;100.00;97463.75;5032986;28;20407;-71
2023/08/08 05:54:44;;;;;;;2.80;1.60;;;;;;;12.99;100.00;97462.69;5032747;28;20413;-71
2023/08/08 05:57:11;;;;;;;3.37;2.10;;;;;;;13.05;100.00;97464.28;5031412;28;20848;-71
2023/08/08 05:59:38;;;;;;;2.60;1.80;;;;;;;13.11;100.00;97462.41;5032619;28;20403;-71
2023/08/08 06:02:05;;;;;;;2.75;1.85;;;;;;;13.12;100.00;97467.47;5032652;28;20494;-71
2023/08/08 06:04:31;;;;;;;5.65;2.00;;;;;;;13.15;100.00;97466.19;5032582;28;20495;-71
2023/08/08 06:06:57;;;;;;;3.47;1.77;;;;;;;13.18;100.00;97463.78;5032587;28;20769;-72
2023/08/08 06:09:24;;;;;;;3.85;2.00;;;;;;;13.21;100.00;97470.44;5040616;28;20401;-71
2023/08/08 06:11:50;;;;;;;2.90;1.70;;;;;;;13.26;100.00;97467.75;5040500;28;20410;-71
2023/08/08 06:14:17;;;;;;;3.33;1.90;;;;;;;13.34;100.00;97469.09;5032559;28;20407;-71
2023/08/08 06:16:46;;;;;;;2.95;1.88;;;;;;;13.37;100.00;97464.06;5031063;28;20448;-71
2023/08/08 06:19:14;;;;;;;3.30;1.83;;;;;;;13.38;100.00;97465.63;5032300;28;20967;-71
2023/08/08 06:21:41;;;;;;;8.05;2.00;;;;;;;13.40;100.00;97452.06;5032142;28;20399;-71
2023/08/08 06:24:07;;;;;;;4.43;1.80;;;;;;;13.40;100.00;97452.88;5032192;28;20413;-71
2023/08/08 06:26:33;;;;;;;2.05;1.50;;;;;;;13.44;100.00;97453.94;5032234;28;20406;-71
2023/08/08 06:29:00;;;;;;;4.40;1.90;;;;;;;13.47;100.00;97455.25;5032043;28;20399;-71
2023/08/08 06:31:26;;;;;;;2.45;1.80;;;;;;;13.47;100.00;97456.06;5032006;28;20892;-71
2023/08/08 06:33:54;;;;;;;5.57;1.70;;;;;;;13.59;100.00;97460.31;5032036;28;20403;-71
2023/08/08 06:36:20;;;;;;;2.80;1.77;;;;;;;13.70;100.00;97459.22;5031978;28;20796;-71
2023/08/08 06:38:46;;;;;;;3.55;1.75;;;;;;;13.71;100.00;97456.28;5031505;28;20403;-71
2023/08/08 06:41:12;;;;;;;2.53;1.80;;;;;;;13.71;100.00;97458.94;5031921;28;20406;-71
2023/08/08 06:43:39;;;;;;;3.25;1.80;;;;;;;13.71;100.00;97461.63;5031874;28;20816;-71
2023/08/08 06:46:05;;;;;;;2.33;1.75;;;;;;;13.76;100.00;97463.44;5031779;28;20418;-71
2023/08/08 06:48:31;;;;;;;2.63;1.73;;;;;;;13.77;100.00;97452.53;5030272;28;20437;-71
2023/08/08 06:50:58;;;;;;;2.92;1.60;;;;;;;13.77;100.00;97454.41;5031756;28;20976;-71
2023/08/08 06:53:25;;;;;;;2.45;1.35;;;;;;;13.77;100.00;97454.41;5031675;28;20399;-71
2023/08/08 06:55:51;;;;;;;2.30;1.60;;;;;;;13.77;100.00;97449.88;5031635;28;20415;-71
2023/08/08 06:58:17;;;;;;;2.85;1.90;;;;;;;13.83;100.00;97453.34;5031514;28;20411;-71
2023/08/08 07:00:44;;;;;;;3.38;1.58;;;;;;;13.90;100.00;97449.34;5030677;28;20417;-71
2023/08/08 07:03:11;;;;;;;2.42;1.70;;;;;;;13.97;100.00;97448.25;5031383;28;20893;-71
2023/08/08 07:05:39;;;;;;;2.95;1.65;;;;;;;14.05;100.00;97451.16;5031508;28;20903;-71
2023/08/08 07:08:08;;;;;;;4.22;2.10;;;;;;;14.10;100.00;97453.00;5031217;28;20404;-71
2023/08/08 07:10:35;;;;;;;2.83;1.83;;;;;;;14.15;100.00;97455.63;5031247;28;20403;-71
2023/08/08 07:13:01;;;;;;;2.25;1.48;;;;;;;14.26;100.00;97449.22;5031226;28;20797;-71
2023/08/08 07:15:27;;;;;;;2.20;1.35;;;;;;;14.34;100.00;97454.78;5031327;28;20418;-71
2023/08/08 07:17:54;;;;;;;1.95;1.40;;;;;;;14.41;100.00;97451.03;5031082;28;20418;-71
2023/08/08 07:20:20;;;;;;;3.58;1.40;;;;;;;14.48;100.00;97451.53;5031323;28;20435;-71
2023/08/08 07:22:46;;;;;;;1.40;1.30;;;;;;;14.57;100.00;97456.03;5031076;28;20407;-71
2023/08/08 07:25:14;;;;;;;1.92;1.58;;;;;;;14.64;100.00;97445.88;5031174;28;20457;-71
2023/08/08 07:27:40;;;;;;;6.60;1.90;;;;;;;14.74;100.00;97445.00;5030883;28;20486;-71
2023/08/08 07:30:08;;;;;;;2.35;1.50;;;;;;;14.81;100.00;97444.72;5031035;28;20408;-71
2023/08/08 07:32:34;;;;;;;4.63;1.80;;;;;;;14.98;100.00;97445.91;5030763;28;20949;-71
2023/08/08 07:35:02;;;;;;;2.55;1.52;;;;;;;14.99;100.00;97442.16;5031042;28;20403;-71
2023/08/08 07:37:28;;;;;;;3.20;1.58;;;;;;;15.07;100.00;97443.44;5030677;28;20897;-71
2023/08/08 07:39:55;;;;;;;2.08;1.70;;;;;;;15.09;100.00;97442.09;5030951;28;20439;-71
2023/08/08 07:42:22;;;;;;;2.58;1.55;;;;;;;15.23;100.00;97441.47;5030802;28;20450;-71
2023/08/08 07:44:48;;;;;;;3.20;1.80;;;;;;;15.29;100.00;97441.13;5030775;28;20897;-70
2023/08/08 07:47:15;;;;;;;5.55;1.50;;;;;;;15.42;100.00;97445.00;5030709;28;20485;-71
2023/08/08 07:49:41;;;;;;;3.58;1.73;;;;;;;15.55;100.00;97452.41;5030448;28;20415;-72
2023/08/08 07:52:07;;;;;;;3.10;1.70;;;;;;;15.68;100.00;97440.28;5030743;28;20410;-72
2023/08/08 07:54:33;;;;;;;5.18;1.90;;;;;;;15.73;100.00;97437.56;5030819;28;20402;-72
2023/08/08 07:57:00;;;;;;;2.85;1.55;;;;;;;15.85;100.00;97438.78;5030194;28;20425;-72
2023/08/08 07:59:27;;;;;;;2.53;1.52;;;;;;;15.94;100.00;97438.16;5030540;28;20411;-72
2023/08/08 08:01:53;;;;;;;3.22;1.55;;;;;;;16.02;100.00;97429.50;5030537;28;20403;-72
2023/08/08 08:04:20;;;;;;;2.97;1.48;;;;;;;16.08;100.00;97437.19;5030682;28;20434;-72
2023/08/08 08:06:46;;;;;;;2.05;1.38;;;;;;;16.07;100.00;97430.25;5030599;28;20430;-72
2023/08/08 08:09:12;;;;;;;2.73;1.37;;;;;;;16.12;100.00;97429.38;5030481;28;20410;-71
2023/08/08 08:11:38;;;;;;;2.30;1.50;;;;;;;16.23;100.00;97428.22;5030063;28;20412;-72
2023/08/08 08:14:05;;;;;;;2.47;1.30;;;;;;;16.38;100.00;97444.03;5030433;28;20411;-72
2023/08/08 08:16:32;;;;;;;2.38;1.60;;;;;;;16.58;100.00;97432.28;5030208;28;20423;-72
2023/08/08 08:18:59;;;;;;;3.47;1.40;;;;;;;16.62;100.00;97436.00;5030264;28;20403;-72
2023/08/08 08:21:25;;;;;;;3.17;1.55;;;;;;;16.60;100.00;97433.63;5030183;28;20486;-72
2023/08/08 08:23:51;;;;;;;1.90;1.35;;;;;;;16.64;100.00;97439.16;5030381;28;20466;-72
2023/08/08 08:26:17;;;;;;;1.70;1.23;;;;;;;16.63;100.00;97435.69;5029133;28;20502;-72
2023/08/08 08:28:43;;;;;;;3.78;1.48;;;;;;;16.59;100.00;97437.34;5030101;28;21116;-72
2023/08/08 08:31:09;;;;;;;2.13;1.40;;;;;;;16.53;100.00;97435.03;5030141;28;20403;-72
2023/08/08 08:33:37;;;;;;;2.60;1.40;;;;;;;16.59;100.00;97440.03;5030228;28;20403;-71
2023/08/08 08:36:03;;;;;;;1.65;1.17;;;;;;;16.59;100.00;97442.69;5030300;28;20407;-72
2023/08/08 08:38:30;;;;;;;2.95;1.50;;;;;;;16.53;100.00;97440.38;5029917;28;20750;-72
2023/08/08 08:40:58;;;;;;;2.67;1.70;;;;;;;16.59;100.00;97440.03;5030180;28;20415;-72
2023/08/08 08:43:24;;;;;;;1.98;1.35;;;;;;;16.67;100.00;97435.94;5030025;28;20486;-72
2023/08/08 08:45:52;;;;;;;1.95;1.30;;;;;;;16.76;100.00;97420.84;5030054;28;20403;-72
2023/08/08 08:48:20;;;;;;;3.42;1.25;;;;;;;16.79;100.00;97433.63;5029886;28;20395;-72
2023/08/08 08:50:49;;;;;;;3.63;1.70;;;;;;;16.94;100.00;97424.56;5029930;28;20403;-72
2023/08/08 08:53:17;;;;;;;2.63;1.60;;;;;;;17.06;100.00;97437.50;5029970;28;20403;-72
2023/08/08 08:55:44;;;;;;;6.18;1.60;;;;;;;17.04;100.00;97419.06;5029818;28;20402;-72
2023/08/08 08:58:10;;;;;;;1.73;1.35;;;;;;;17.01;100.00;97423.13;5029786;28;20415;-72
2023/08/08 09:00:37;;;;;;;3.00;1.70;;;;;;;17.17;100.00;97428.22;5029794;28;20788;-72
2023/08/08 09:03:04;;;;;;;3.13;1.40;;;;;;;17.13;100.00;97422.69;5029828;28;20402;-72
2023/08/08 09:05:31;;;;;;;4.25;1.50;;;;;;;17.08;100.00;97417.41;5029779;28;20485;-72
2023/08/08 09:07:59;;;;;;;3.50;1.73;;;;;;;17.07;100.00;97410.44;5029762;28;20403;-72
2023/08/08 09:10:27;;;;;;;5.32;1.50;;;;;;;17.14;100.00;97416.22;5029759;28;20868;-72
2023/08/08 09:12:54;;;;;;;1.88;1.30;;;;;;;17.27;100.00;97417.38;5029723;28;20411;-72
2023/08/08 09:15:20;;;;;;;2.20;1.30;;;;;;;17.39;100.00;97404.31;5029754;28;20407;-72
2023/08/08 09:17:46;;;;;;;5.38;1.98;;;;;;;17.46;100.00;97399.38;5029480;28;20502;-72
2023/08/08 09:20:14;;;;;;;2.38;1.20;;;;;;;17.61;100.00;97404.47;5029654;28;20426;-72
2023/08/08 09:22:40;;;;;;;2.03;1.47;;;;;;;17.66;100.00;97408.97;5029850;28;20490;-72
2023/08/08 09:25:08;;;;;;;1.92;1.30;;;;;;;17.66;100.00;97409.75;5033366;28;20753;-71
2023/08/08 09:27:34;;;;;;;3.25;1.48;;;;;;;17.60;100.00;97410.88;5033145;28;20392;-71
2023/08/08 09:30:00;;;;;;;1.20;1.10;;;;;;;17.63;100.00;97405.00;5033390;28;20434;-71
2023/08/08 09:32:30;;;;;;;2.20;1.10;;;;;;;17.65;100.00;97391.31;5033187;28;20402;-71
2023/08/08 09:34:57;;;;;;;1.65;1.20;;;;;;;17.74;100.00;97403.69;5033272;28;20411;-71
2023/08/08 09:37:23;;;;;;;2.67;1.42;;;;;;;18.00;100.00;97398.66;5032936;28;20509;-72
2023/08/08 09:39:57;;;;;;;1.42;0.95;;;;;;;18.02;100.00;97391.13;5033271;28;20482;-72
2023/08/08 09:42:26;;;;;;;3.53;1.38;;;;;;;18.05;100.00;97390.50;5033117;28;20403;-71
2023/08/08 09:44:52;;;;;;;1.90;1.30;;;;;;;18.01;100.00;97388.75;5045200;28;20390;-72
2023/08/08 09:47:18;;;;;;;2.87;1.60;;;;;;;18.06;100.00;97386.75;5053117;28;20393;-72
2023/08/08 09:49:45;;;;;;;4.32;1.60;;;;;;;18.12;100.00;97385.53;5052763;28;20475;-71
2023/08/08 09:52:11;;;;;;;3.83;1.50;;;;;;;18.26;99.68;97379.41;5052813;28;20413;-72
2023/08/08 09:54:39;;;;;;;4.63;1.43;;;;;;;18.37;97.91;97380.75;5052998;28;20503;-71
2023/08/08 09:57:07;;;;;;;3.70;1.40;;;;;;;18.47;96.54;97378.66;5052688;28;20417;-71
2023/08/08 09:59:35;;;;;;;1.90;1.20;;;;;;;18.53;97.61;97382.00;5052291;28;20426;-72
2023/08/08 10:02:01;;;;;;;4.85;1.60;;;;;;;18.63;94.53;97375.66;5052504;28;20435;-72
2023/08/08 10:04:28;;;;;;;2.88;1.23;;;;;;;18.59;95.51;97372.78;5052589;28;20409;-72
2023/08/08 10:06:54;;;;;;;2.90;1.37;;;;;;;18.48;93.62;97374.09;5048399;28;20395;-72
2023/08/08 10:09:21;;;;;;;3.00;1.50;;;;;;;18.40;93.57;97377.47;5032510;28;20403;-72
2023/08/08 10:11:48;;;;;;;4.40;1.50;;;;;;;18.30;87.18;97377.69;5032543;28;20407;-72
2023/08/08 10:14:15;;;;;;;2.33;1.20;;;;;;;18.33;88.01;97371.75;5032483;28;20407;-72
2023/08/08 10:16:44;;;;;;;2.80;1.50;;;;;;;18.38;85.34;97371.63;5032300;28;20434;-71
2023/08/08 10:19:10;;;;;;;2.00;1.30;;;;;;;18.54;80.38;97362.16;5032349;28;20403;-72
2023/08/08 10:21:41;;;;;;;1.83;1.20;;;;;;;18.73;83.06;97367.38;5032242;28;20490;-72
2023/08/08 10:24:09;;;;;;;2.28;1.10;;;;;;;18.89;83.51;97374.75;5032415;28;20403;-71
2023/08/08 10:26:51;;;;;;;1.90;1.10;;;;;;;19.09;82.59;97370.00;5032330;28;20429;-72
2023/08/08 10:29:19;;;;;;;2.45;1.10;;;;;;;19.22;83.64;97369.16;5030983;28;20403;-72
2023/08/08 10:31:53;;;;;;;2.90;1.80;;;;;;;19.27;82.88;97369.81;5040905;28;20894;-71
2023/08/08 10:34:23;;;;;;;2.25;1.13;;;;;;;19.46;83.42;97368.81;5032033;28;20410;-72
2023/08/08 10:36:52;;;;;;;2.80;1.27;;;;;;;19.57;78.96;97373.63;5043791;28;20436;-72
2023/08/08 10:39:19;;;;;;;2.05;1.05;;;;;;;19.53;80.01;97374.56;5051840;28;20409;-72
2023/08/08 10:41:46;;;;;;;3.05;1.10;;;;;;;19.42;79.17;97381.25;5051636;28;20413;-72
2023/08/08 10:44:13;;;;;;;3.70;1.20;;;;;;;19.36;75.67;97375.22;5051876;28;20802;-72
2023/08/08 10:46:41;;;;;;;2.90;1.42;;;;;;;19.25;76.27;97379.25;5051730;28;20405;-72
2023/08/08 10:49:14;;;;;;;2.42;1.15;;;;;;;19.10;75.87;97368.88;5051675;28;20405;-72
2023/08/08 10:51:44;;;;;;;3.35;1.10;;;;;;;19.08;76.57;97368.44;5051783;28;20398;-72
2023/08/08 10:54:14;;;;;;;2.05;1.23;;;;;;;19.07;78.25;97362.28;5051873;28;20404;-72
2023/08/08 10:56:40;;;;;;;3.33;1.35;;;;;;;19.20;79.54;97357.91;5051203;28;20405;-72
2023/08/08 10:59:17;;;;;;;3.00;1.27;;;;;;;19.46;78.03;97360.75;5051425;28;20410;-72
2023/08/08 11:01:47;;;;;;;3.00;1.20;;;;;;;19.67;77.69;97353.75;5051184;28;20418;-71
2023/08/08 11:04:16;;;;;;;2.60;1.20;;;;;;;19.91;77.07;97358.75;5051490;28;20903;-71
2023/08/08 11:06:42;;;;;;;1.20;1.00;;;;;;;20.10;74.59;97360.06;5051292;28;20946;-71
2023/08/08 11:09:08;;;;;;;1.23;1.00;;;;;;;20.28;74.76;97352.03;5051260;28;20464;-72
2023/08/08 11:11:37;;;;;;;2.78;1.30;;;;;;;20.30;73.84;97358.66;5051126;28;20412;-71
2023/08/08 11:14:10;;;;;;;2.87;1.30;;;;;;;20.15;72.09;97347.59;5050013;28;20413;-71
2023/08/08 11:16:36;;;;;;;1.95;1.20;;;;;;;19.96;71.39;97351.34;5051076;28;20485;-71
2023/08/08 11:19:03;;;;;;;3.70;1.30;;;;;;;19.75;69.05;97347.63;5050842;28;20413;-71
2023/08/08 11:21:35;;;;;;;3.35;1.38;;;;;;;19.73;71.21;97359.78;5050837;28;20887;-71
2023/08/08 11:24:02;;;;;;;1.75;1.17;;;;;;;19.70;72.41;97356.59;5051047;28;20405;-71
2023/08/08 11:26:31;;;;;;;2.60;1.27;;;;;;;19.88;72.29;97359.34;5050887;28;20451;-72